createdAt,value
2023-05-18T00:00:46.245Z,197.34
2023-05-18T00:03:14.058Z,182.26
2023-05-18T00:05:43.208Z,165.30
2023-05-18T00:08:11.344Z,163.67
2023-05-18T00:10:39.134Z,183.07
2023-05-18T00:13:06.824Z,174.44
2023-05-18T00:15:34.491Z,173.35
2023-05-18T00:18:02.450Z,197.94
2023-05-18T00:20:31.778Z,215.06
2023-05-18T00:23:01.822Z,200.93
2023-05-18T00:25:30.830Z,177.49
2023-05-18T00:27:58.785Z,217.25
2023-05-18T00:30:26.742Z,173.07
2023-05-18T00:32:54.549Z,204.59
2023-05-18T00:35:22.354Z,198.04
2023-05-18T00:37:50.046Z,207.47
2023-05-18T00:40:19.491Z,181.03
2023-05-18T00:42:47.200Z,172.42
2023-05-18T00:45:14.873Z,184.75
2023-05-18T00:47:43.227Z,210.55
2023-05-18T00:50:11.328Z,193.49
2023-05-18T00:52:39.455Z,206.59
2023-05-18T00:55:09.189Z,219.77
2023-05-18T00:57:38.806Z,212.90
2023-05-18T01:00:08.153Z,194.01
2023-05-18T01:02:36.210Z,233.98
2023-05-18T01:05:04.160Z,240.46
2023-05-18T01:07:31.923Z,223.67
2023-05-18T01:10:00.415Z,192.33
2023-05-18T01:12:37.188Z,183.91
2023-05-18T01:15:15.791Z,219.28
2023-05-18T01:17:59.001Z,245.60
2023-05-18T01:20:35.354Z,215.60
2023-05-18T01:23:28.477Z,188.66
2023-05-18T01:26:14.374Z,190.64
2023-05-18T01:28:45.359Z,220.23
2023-05-18T01:31:14.333Z,244.36
2023-05-18T01:33:42.594Z,242.00
2023-05-18T01:36:11.012Z,225.75
2023-05-18T01:38:41.654Z,181.40
2023-05-18T01:41:20.074Z,199.82
2023-05-18T01:43:56.273Z,213.46
2023-05-18T01:46:36.465Z,185.64
2023-05-18T01:49:13.501Z,189.60
2023-05-18T01:51:45.938Z,192.53
2023-05-18T01:54:17.366Z,198.26
2023-05-18T01:56:55.190Z,198.46
2023-05-18T01:59:23.439Z,190.95
2023-05-18T02:01:51.707Z,191.50
2023-05-18T02:04:28.104Z,195.49
2023-05-18T02:06:56.248Z,227.19
2023-05-18T02:09:24.090Z,249.46
2023-05-18T02:11:53.182Z,234.53
2023-05-18T02:14:20.870Z,215.30
2023-05-18T02:16:50.161Z,177.51
2023-05-18T02:19:17.913Z,193.56
2023-05-18T02:21:45.888Z,219.83
2023-05-18T02:24:13.701Z,237.18
2023-05-18T02:26:41.404Z,219.69
2023-05-18T02:29:10.605Z,209.99
2023-05-18T02:31:38.473Z,215.90
2023-05-18T02:34:06.788Z,242.69
2023-05-18T02:36:34.751Z,255.12
2023-05-18T02:39:02.644Z,211.89
2023-05-18T02:41:30.781Z,209.33
2023-05-18T02:43:59.913Z,228.43
2023-05-18T02:46:31.928Z,247.32
2023-05-18T02:49:00.016Z,258.29
2023-05-18T02:51:27.791Z,237.74
2023-05-18T02:53:55.403Z,239.28
2023-05-18T02:56:23.088Z,260.40
2023-05-18T02:58:50.738Z,250.66
2023-05-18T03:01:18.561Z,264.95
2023-05-18T03:03:47.689Z,247.23
2023-05-18T03:06:15.510Z,209.22
2023-05-18T03:08:43.476Z,218.86
2023-05-18T03:11:11.392Z,179.77
2023-05-18T03:13:39.267Z,182.58
2023-05-18T03:16:07.255Z,232.78
2023-05-18T03:18:35.096Z,218.71
2023-05-18T03:21:06.054Z,215.14
2023-05-18T03:23:36.121Z,220.46
2023-05-18T03:26:05.467Z,193.56
2023-05-18T03:28:33.125Z,181.85
2023-05-18T03:31:05.946Z,161.86
2023-05-18T03:33:34.133Z,175.87
2023-05-18T03:36:05.400Z,178.98
2023-05-18T03:38:33.091Z,154.42
2023-05-18T03:41:00.848Z,152.91
2023-05-18T03:43:28.546Z,162.54
2023-05-18T03:45:56.318Z,150.16
2023-05-18T03:48:24.595Z,158.32
2023-05-18T03:50:52.425Z,161.58
2023-05-18T03:53:21.639Z,163.02
2023-05-18T03:55:49.567Z,168.48
2023-05-18T03:58:17.361Z,170.10
2023-05-18T04:00:47.451Z,151.82
2023-05-18T04:03:15.260Z,149.11
2023-05-18T04:05:43.332Z,146.11
2023-05-18T04:08:11.054Z,150.90
2023-05-18T04:10:41.607Z,154.41
2023-05-18T04:13:09.639Z,146.29
2023-05-18T04:15:38.687Z,136.41
2023-05-18T04:18:06.566Z,130.82
2023-05-18T04:20:34.941Z,138.15
2023-05-18T04:23:02.698Z,139.17
2023-05-18T04:25:31.544Z,137.03
2023-05-18T04:28:02.233Z,155.44
2023-05-18T04:30:30.076Z,146.62
2023-05-18T04:32:57.777Z,159.43
2023-05-18T04:35:27.457Z,147.37
2023-05-18T04:37:55.181Z,161.26
2023-05-18T04:40:22.901Z,147.93
2023-05-18T04:42:50.799Z,147.65
2023-05-18T04:45:20.925Z,142.64
2023-05-18T04:47:49.811Z,148.97
2023-05-18T04:50:17.933Z,151.31
2023-05-18T04:52:48.566Z,144.84
2023-05-18T04:55:17.404Z,141.60
2023-05-18T04:57:45.211Z,137.72
2023-05-18T05:00:13.765Z,168.97
2023-05-18T05:02:42.858Z,162.13
2023-05-18T05:05:10.617Z,167.39
2023-05-18T05:07:38.192Z,169.71
2023-05-18T05:10:07.101Z,148.95
2023-05-18T05:12:36.472Z,134.25
2023-05-18T05:15:09.746Z,161.96
2023-05-18T05:17:42.399Z,135.85
2023-05-18T05:20:11.726Z,145.02
2023-05-18T05:22:39.591Z,137.92
2023-05-18T05:25:08.095Z,147.39
2023-05-18T05:27:35.810Z,126.60
2023-05-18T05:30:04.089Z,126.27
2023-05-18T05:32:31.797Z,128.88
2023-05-18T05:34:59.561Z,130.92
2023-05-18T05:37:28.553Z,124.09
2023-05-18T05:39:56.220Z,121.13
2023-05-18T05:42:23.894Z,116.58
2023-05-18T05:44:51.544Z,122.32
2023-05-18T05:47:19.122Z,123.33
2023-05-18T05:49:46.819Z,116.06
2023-05-18T05:52:14.674Z,113.60
2023-05-18T05:54:43.660Z,122.83
2023-05-18T05:57:11.565Z,117.27
2023-05-18T05:59:39.272Z,188.65
2023-05-18T06:02:06.994Z,141.43
2023-05-18T06:04:35.297Z,123.14
2023-05-18T06:07:03.132Z,123.85
2023-05-18T06:09:30.927Z,114.29
2023-05-18T06:11:59.972Z,141.70
2023-05-18T06:14:27.846Z,121.72
2023-05-18T06:16:55.646Z,129.65
2023-05-18T06:19:23.467Z,121.59
2023-05-18T06:21:51.239Z,112.22
2023-05-18T06:24:19.147Z,115.06
2023-05-18T06:26:46.940Z,134.93
2023-05-18T06:29:15.912Z,133.72
2023-05-18T06:31:44.148Z,137.81
2023-05-18T06:34:12.314Z,123.52
2023-05-18T06:36:39.964Z,110.45
2023-05-18T06:39:07.602Z,110.82
2023-05-18T06:41:35.720Z,118.41
2023-05-18T06:44:03.635Z,114.78
2023-05-18T06:46:32.712Z,116.20
2023-05-18T06:49:00.645Z,87.60
2023-05-18T06:51:28.430Z,111.39
2023-05-18T06:53:56.112Z,110.98
2023-05-18T06:56:23.925Z,104.29
2023-05-18T06:58:51.872Z,105.45
2023-05-18T07:01:19.782Z,82.05
2023-05-18T07:03:48.833Z,99.24
2023-05-18T07:06:16.803Z,95.36
2023-05-18T07:08:45.092Z,114.01
2023-05-18T07:11:12.940Z,96.22
2023-05-18T07:13:40.546Z,84.27
2023-05-18T07:16:08.348Z,153.57
2023-05-18T07:18:36.219Z,86.06
2023-05-18T07:21:06.762Z,79.58
2023-05-18T07:23:34.348Z,107.90
2023-05-18T07:26:02.227Z,123.94
2023-05-18T07:28:29.829Z,87.65
2023-05-18T07:31:00.796Z,115.46
2023-05-18T07:33:31.708Z,97.46
2023-05-18T07:35:59.645Z,103.72
2023-05-18T07:38:28.836Z,153.81
2023-05-18T07:40:56.517Z,110.90
2023-05-18T07:43:24.288Z,80.18
2023-05-18T07:45:52.016Z,108.73
2023-05-18T07:48:19.785Z,97.54
2023-05-18T07:50:47.477Z,88.44
2023-05-18T07:53:16.591Z,74.86
2023-05-18T07:55:46.819Z,95.98
2023-05-18T07:58:14.565Z,84.16
2023-05-18T08:00:42.157Z,126.96
2023-05-18T08:03:09.910Z,168.89
2023-05-18T08:05:37.759Z,77.22
2023-05-18T08:08:07.044Z,60.44
2023-05-18T08:10:34.905Z,70.27
2023-05-18T08:13:05.095Z,46.52
2023-05-18T08:15:32.951Z,64.25
2023-05-18T08:18:00.891Z,111.46
2023-05-18T08:20:28.772Z,259.78
2023-05-18T08:22:56.414Z,96.61
2023-05-18T08:25:25.649Z,151.21
2023-05-18T08:27:53.339Z,114.02
2023-05-18T08:30:22.451Z,71.69
2023-05-18T08:32:50.578Z,69.71
2023-05-18T08:35:19.252Z,58.02
2023-05-18T08:37:47.162Z,63.91
2023-05-18T08:40:14.960Z,72.29
2023-05-18T08:42:50.749Z,86.12
2023-05-18T08:45:30.126Z,91.06
2023-05-18T08:48:00.713Z,60.82
2023-05-18T08:50:32.527Z,40.15
2023-05-18T08:53:04.976Z,43.93
2023-05-18T08:55:33.745Z,34.89
2023-05-18T08:58:04.092Z,42.77
2023-05-18T09:00:34.227Z,44.42
2023-05-18T09:03:04.021Z,40.59
2023-05-18T09:05:37.367Z,38.33
2023-05-18T09:08:07.401Z,42.23
2023-05-18T09:10:36.418Z,28.45
2023-05-18T09:13:04.677Z,30.23
2023-05-18T09:15:34.370Z,26.46
2023-05-18T09:18:02.204Z,25.34
2023-05-18T09:20:30.301Z,28.21
2023-05-18T09:22:59.653Z,23.35
2023-05-18T09:25:34.319Z,27.04
2023-05-18T09:28:02.441Z,23.06
2023-05-18T09:30:30.270Z,19.96
2023-05-18T09:32:59.403Z,20.50
2023-05-18T09:35:28.249Z,19.92
2023-05-18T09:37:57.326Z,20.54
2023-05-18T09:40:28.385Z,28.53
2023-05-18T09:42:56.185Z,27.18
2023-05-18T09:45:24.013Z,22.06
2023-05-18T09:47:52.191Z,26.44
2023-05-18T09:50:22.764Z,18.55
2023-05-18T09:52:51.377Z,20.59
2023-05-18T09:55:20.536Z,24.85
2023-05-18T09:57:50.503Z,25.60
2023-05-18T10:00:19.954Z,23.43
2023-05-18T10:02:49.753Z,30.31
2023-05-18T10:05:23.147Z,24.82
2023-05-18T10:07:51.421Z,28.96
2023-05-18T10:10:20.557Z,28.54
2023-05-18T10:12:51.394Z,26.70
2023-05-18T10:15:22.431Z,24.81
2023-05-18T10:17:55.363Z,28.69
2023-05-18T10:20:24.936Z,26.35
2023-05-18T10:22:55.671Z,23.39
2023-05-18T10:25:26.547Z,26.57
2023-05-18T10:28:00.050Z,24.38
2023-05-18T10:30:28.480Z,26.04
2023-05-18T10:32:58.857Z,25.16
2023-05-18T10:35:29.035Z,25.21
2023-05-18T10:37:59.782Z,22.35
2023-05-18T10:40:29.271Z,19.97
2023-05-18T10:42:57.942Z,25.16
2023-05-18T10:45:26.725Z,29.32
2023-05-18T10:47:57.231Z,31.82
2023-05-18T10:50:29.511Z,27.35
2023-05-18T10:53:02.774Z,21.83
2023-05-18T10:55:30.891Z,21.08
2023-05-18T10:58:07.571Z,23.93
2023-05-18T11:00:38.221Z,26.38
2023-05-18T11:03:11.817Z,21.06
2023-05-18T11:05:41.976Z,20.37
2023-05-18T11:08:10.059Z,17.19
2023-05-18T11:10:42.333Z,19.49
2023-05-18T11:13:10.697Z,23.04
2023-05-18T11:16:04.244Z,20.59
2023-05-18T11:18:44.426Z,19.39
2023-05-18T11:21:30.793Z,18.97
2023-05-18T11:24:26.432Z,15.34
2023-05-18T11:26:56.063Z,13.83
2023-05-18T11:29:31.163Z,14.07
2023-05-18T11:32:00.548Z,13.61
2023-05-18T11:34:42.316Z,24.26
2023-05-18T11:37:12.519Z,18.93
2023-05-18T11:39:51.746Z,14.86
2023-05-18T11:42:27.828Z,12.04
2023-05-18T11:44:56.155Z,16.34
2023-05-18T11:47:30.786Z,12.97
2023-05-18T11:50:00.156Z,14.55
2023-05-18T11:52:29.940Z,14.49
2023-05-18T11:54:59.344Z,14.02
2023-05-18T11:57:39.375Z,12.72
2023-05-18T12:00:09.653Z,13.83
2023-05-18T12:02:38.293Z,13.08
2023-05-18T12:05:09.809Z,11.86
2023-05-18T12:07:40.006Z,15.54
2023-05-18T12:10:10.078Z,29.35
2023-05-18T12:12:38.870Z,10.98
2023-05-18T12:15:11.967Z,24.80
2023-05-18T12:17:41.520Z,10.50
2023-05-18T12:20:11.440Z,16.47
2023-05-18T12:22:45.513Z,12.51
2023-05-18T12:25:13.586Z,53.04
2023-05-18T12:27:43.575Z,14.88
2023-05-18T12:30:12.444Z,12.96
2023-05-18T12:32:45.335Z,15.63
2023-05-18T12:35:13.553Z,18.30
2023-05-18T12:37:45.103Z,18.76
2023-05-18T12:40:16.808Z,18.35
2023-05-18T12:42:54.448Z,16.61
2023-05-18T12:45:23.885Z,13.90
2023-05-18T12:47:52.420Z,13.14
2023-05-18T12:50:21.699Z,14.39
2023-05-18T12:52:51.617Z,18.22
2023-05-18T12:55:20.356Z,17.53
2023-05-18T12:58:00.771Z,17.97
2023-05-18T13:00:32.084Z,16.13
2023-05-18T13:03:14.421Z,13.32
2023-05-18T13:05:44.990Z,14.17
2023-05-18T13:08:20.686Z,13.45
2023-05-18T13:10:58.086Z,13.24
2023-05-18T13:13:34.799Z,14.36
2023-05-18T13:16:02.701Z,16.05
2023-05-18T13:18:32.827Z,15.42
2023-05-18T13:21:00.582Z,15.80
2023-05-18T13:23:30.762Z,13.54
2023-05-18T13:25:58.995Z,16.33
2023-05-18T13:28:27.474Z,14.15
2023-05-18T13:30:56.394Z,16.29
2023-05-18T13:33:26.113Z,18.87
2023-05-18T13:35:53.777Z,19.54
2023-05-18T13:38:22.503Z,16.32
2023-05-18T13:40:54.694Z,14.94
2023-05-18T13:43:24.170Z,14.23
2023-05-18T13:45:51.955Z,13.33
2023-05-18T13:48:20.184Z,11.67
2023-05-18T13:50:49.299Z,11.35
2023-05-18T13:53:18.089Z,11.23
2023-05-18T13:55:47.234Z,13.28
2023-05-18T13:58:16.223Z,15.98
2023-05-18T14:00:44.155Z,17.51
2023-05-18T14:03:12.000Z,19.29
2023-05-18T14:05:40.876Z,18.29
2023-05-18T14:08:08.927Z,16.77
2023-05-18T14:10:36.683Z,15.48
2023-05-18T14:13:04.382Z,15.22
2023-05-18T14:15:33.389Z,16.03
2023-05-18T14:18:01.054Z,20.30
2023-05-18T14:20:29.059Z,18.79
2023-05-18T14:22:58.180Z,22.08
2023-05-18T14:25:26.337Z,22.70
2023-05-18T14:27:54.429Z,19.36
2023-05-18T14:30:22.021Z,21.66
2023-05-18T14:32:52.223Z,18.86
2023-05-18T14:35:20.209Z,22.26
2023-05-18T14:37:48.113Z,22.68
2023-05-18T14:40:15.812Z,19.38
2023-05-18T14:42:43.686Z,18.38
2023-05-18T14:45:13.603Z,17.34
2023-05-18T14:47:41.296Z,18.59
2023-05-18T14:50:11.071Z,16.48
2023-05-18T14:52:38.779Z,20.35
2023-05-18T14:55:07.116Z,18.49
2023-05-18T14:57:35.795Z,15.02
2023-05-18T15:00:04.462Z,14.92
2023-05-18T15:02:32.425Z,13.97
2023-05-18T15:05:00.234Z,16.42
2023-05-18T15:07:29.325Z,20.71
2023-05-18T15:09:57.086Z,19.81
2023-05-18T15:12:26.070Z,19.18
2023-05-18T15:14:54.428Z,21.98
2023-05-18T15:17:25.988Z,18.70
2023-05-18T15:19:54.574Z,17.82
2023-05-18T15:22:23.574Z,17.98
2023-05-18T15:24:52.706Z,16.47
2023-05-18T15:27:20.370Z,14.69
2023-05-18T15:29:48.083Z,12.78
2023-05-18T15:32:16.182Z,13.15
2023-05-18T15:34:43.980Z,13.11
2023-05-18T15:37:11.817Z,15.39
2023-05-18T15:39:39.460Z,9.83
2023-05-18T15:42:08.594Z,11.39
2023-05-18T15:44:36.274Z,11.05
2023-05-18T15:47:05.614Z,10.56
2023-05-18T15:49:33.255Z,10.63
2023-05-18T15:52:00.923Z,11.73
2023-05-18T15:54:28.600Z,12.64
2023-05-18T15:56:56.517Z,11.84
2023-05-18T15:59:25.609Z,12.81
2023-05-18T16:01:54.782Z,11.67
2023-05-18T16:04:23.431Z,12.50
2023-05-18T16:06:51.286Z,10.86
2023-05-18T16:09:19.668Z,12.68
2023-05-18T16:11:49.575Z,10.69
2023-05-18T16:14:17.251Z,9.74
2023-05-18T16:16:46.699Z,11.31
2023-05-18T16:19:14.621Z,12.18
2023-05-18T16:21:42.469Z,12.33
2023-05-18T16:24:10.166Z,15.37
2023-05-18T16:26:39.888Z,16.86
2023-05-18T16:29:08.032Z,18.84
2023-05-18T16:31:35.777Z,17.88
2023-05-18T16:34:04.768Z,19.33
2023-05-18T16:36:34.147Z,17.29
2023-05-18T16:39:01.849Z,17.09
2023-05-18T16:41:29.460Z,17.40
2023-05-18T16:43:59.481Z,16.65
2023-05-18T16:46:32.655Z,17.29
2023-05-18T16:49:00.433Z,17.72
2023-05-18T16:51:30.657Z,19.27
2023-05-18T16:53:58.326Z,16.58
2023-05-18T16:56:26.107Z,18.83
2023-05-18T16:58:53.859Z,20.37
2023-05-18T17:01:28.023Z,19.24
2023-05-18T17:03:56.878Z,18.60
2023-05-18T17:06:25.342Z,17.73
2023-05-18T17:08:54.360Z,15.58
2023-05-18T17:11:22.411Z,16.82
2023-05-18T17:13:50.057Z,16.61
2023-05-18T17:16:18.753Z,17.11
2023-05-18T17:18:46.640Z,18.99
2023-05-18T17:21:14.363Z,19.33
2023-05-18T17:23:42.098Z,20.37
2023-05-18T17:26:12.285Z,17.68
2023-05-18T17:28:40.029Z,14.99
2023-05-18T17:31:07.926Z,12.37
2023-05-18T17:33:35.651Z,16.85
2023-05-18T17:36:03.765Z,17.58
2023-05-18T17:38:31.816Z,18.54
2023-05-18T17:40:59.720Z,16.89
2023-05-18T17:43:28.932Z,16.36
2023-05-18T17:45:56.965Z,16.31
2023-05-18T17:48:24.913Z,17.84
2023-05-18T17:50:52.655Z,15.98
2023-05-18T17:53:20.304Z,16.53
2023-05-18T17:55:48.377Z,21.82
2023-05-18T17:58:16.078Z,26.16
2023-05-18T18:00:45.508Z,21.87
2023-05-18T18:03:13.193Z,29.01
2023-05-18T18:05:40.899Z,23.78
2023-05-18T18:08:09.058Z,26.71
2023-05-18T18:10:39.578Z,17.15
2023-05-18T18:13:08.308Z,19.39
2023-05-18T18:15:36.411Z,23.23
2023-05-18T18:18:08.601Z,29.59
2023-05-18T18:20:37.550Z,24.04
2023-05-18T18:23:05.808Z,25.35
2023-05-18T18:25:33.614Z,24.80
2023-05-18T18:28:01.974Z,18.32
2023-05-18T18:30:30.135Z,88.14
2023-05-18T18:32:58.453Z,23.73
2023-05-18T18:35:27.563Z,26.50
2023-05-18T18:37:55.253Z,18.26
2023-05-18T18:40:23.054Z,21.12
2023-05-18T18:42:50.730Z,24.36
2023-05-18T18:45:18.914Z,20.49
2023-05-18T18:47:48.646Z,18.13
2023-05-18T18:50:16.429Z,14.56
2023-05-18T18:52:45.378Z,16.95
2023-05-18T18:55:13.213Z,27.20
2023-05-18T18:57:41.074Z,21.29
2023-05-18T19:00:09.982Z,16.62
2023-05-18T19:02:38.354Z,33.76
2023-05-18T19:05:07.334Z,50.35
2023-05-18T19:07:36.616Z,25.39
2023-05-18T19:10:06.847Z,28.30
2023-05-18T19:12:34.466Z,48.96
2023-05-18T19:15:02.581Z,46.44
2023-05-18T19:17:30.423Z,34.19
2023-05-18T19:19:58.359Z,29.90
2023-05-18T19:22:26.170Z,44.49
2023-05-18T19:24:54.237Z,31.79
2023-05-18T19:27:23.449Z,25.35
2023-05-18T19:29:51.372Z,29.09
2023-05-18T19:32:20.793Z,30.52
2023-05-18T19:34:48.428Z,30.80
2023-05-18T19:37:19.392Z,25.47
2023-05-18T19:39:47.228Z,31.21
2023-05-18T19:42:14.868Z,45.69
2023-05-18T19:44:46.101Z,37.78
2023-05-18T19:47:13.789Z,25.18
2023-05-18T19:49:41.381Z,58.10
2023-05-18T19:52:09.189Z,47.30
2023-05-18T19:54:38.906Z,34.82
2023-05-18T19:57:06.522Z,52.97
2023-05-18T19:59:34.186Z,43.53
2023-05-18T20:02:03.757Z,43.52
2023-05-18T20:04:31.659Z,52.32
2023-05-18T20:07:00.390Z,48.02
2023-05-18T20:09:28.804Z,47.14
2023-05-18T20:11:56.402Z,49.76
2023-05-18T20:14:24.270Z,45.64
2023-05-18T20:16:51.969Z,51.67
2023-05-18T20:19:20.981Z,51.46
2023-05-18T20:21:48.750Z,45.27
2023-05-18T20:24:16.366Z,40.10
2023-05-18T20:26:43.970Z,38.87
2023-05-18T20:29:11.788Z,43.05
2023-05-18T20:31:39.613Z,45.98
2023-05-18T20:34:07.360Z,43.63
2023-05-18T20:36:36.550Z,49.00
2023-05-18T20:39:04.454Z,50.75
2023-05-18T20:41:32.095Z,49.08
2023-05-18T20:43:59.842Z,50.81
2023-05-18T20:46:28.547Z,48.73
2023-05-18T20:48:56.198Z,49.92
2023-05-18T20:51:23.886Z,51.59
2023-05-18T20:53:52.908Z,57.02
2023-05-18T20:56:20.664Z,60.73
2023-05-18T20:58:48.427Z,57.36
2023-05-18T21:01:16.633Z,65.99
2023-05-18T21:03:44.538Z,63.22
2023-05-18T21:06:12.425Z,65.40
2023-05-18T21:08:40.952Z,55.27
2023-05-18T21:11:10.044Z,48.62
2023-05-18T21:13:37.709Z,58.43
2023-05-18T21:16:05.802Z,58.31
2023-05-18T21:18:33.757Z,60.33
2023-05-18T21:21:01.577Z,56.44
2023-05-18T21:23:30.396Z,57.77
2023-05-18T21:25:58.266Z,58.97
2023-05-18T21:28:29.451Z,57.15
2023-05-18T21:30:57.151Z,69.46
2023-05-18T21:33:24.868Z,71.80
2023-05-18T21:35:53.050Z,218.90
2023-05-18T21:38:20.827Z,101.55
2023-05-18T21:40:48.581Z,44.97
2023-05-18T21:43:16.209Z,44.84
2023-05-18T21:45:45.306Z,125.51
2023-05-18T21:48:13.015Z,103.53
2023-05-18T21:50:40.738Z,48.24
2023-05-18T21:53:10.896Z,50.05
2023-05-18T21:55:38.852Z,71.64
2023-05-18T21:58:06.597Z,38.09
2023-05-18T22:00:34.608Z,45.15
2023-05-18T22:03:04.137Z,39.90
2023-05-18T22:05:31.886Z,40.58
2023-05-18T22:07:59.568Z,39.40
2023-05-18T22:10:27.231Z,89.88
2023-05-18T22:12:54.920Z,62.08
2023-05-18T22:15:22.731Z,61.79
2023-05-18T22:17:50.525Z,78.98
2023-05-18T22:20:19.978Z,341.22
2023-05-18T22:22:47.648Z,144.55
2023-05-18T22:25:15.611Z,39.31
2023-05-18T22:27:43.275Z,50.87
2023-05-18T22:30:12.198Z,41.64
2023-05-18T22:32:40.240Z,40.66
2023-05-18T22:35:09.465Z,44.63
2023-05-18T22:37:38.946Z,38.65
2023-05-18T22:40:08.022Z,40.85
2023-05-18T22:42:35.627Z,41.69
2023-05-18T22:45:03.576Z,238.67
2023-05-18T22:47:31.359Z,59.38
2023-05-18T22:50:00.712Z,268.78
2023-05-18T22:52:28.349Z,50.91
2023-05-18T22:54:57.365Z,52.76
2023-05-18T22:57:25.206Z,52.55
2023-05-18T22:59:52.917Z,57.42
2023-05-18T23:02:20.591Z,550.53
2023-05-18T23:04:48.301Z,123.13
2023-05-18T23:07:15.914Z,56.60
2023-05-18T23:09:43.567Z,217.41
2023-05-18T23:12:12.619Z,160.51
2023-05-18T23:14:40.317Z,58.77
2023-05-18T23:17:08.007Z,102.42
2023-05-18T23:19:35.607Z,58.90
2023-05-18T23:22:03.989Z,60.84
2023-05-18T23:24:31.736Z,64.97
2023-05-18T23:26:59.654Z,57.99
2023-05-18T23:29:28.817Z,59.81
2023-05-18T23:31:56.677Z,72.60
2023-05-18T23:34:24.993Z,81.61
2023-05-18T23:36:53.801Z,50.04
2023-05-18T23:39:22.785Z,112.06
2023-05-18T23:41:53.311Z,44.90
2023-05-18T23:44:21.577Z,115.26
2023-05-18T23:46:51.311Z,72.24
2023-05-18T23:49:20.202Z,85.25
2023-05-18T23:51:54.802Z,68.94
2023-05-18T23:54:23.005Z,185.92
2023-05-18T23:56:51.075Z,51.04
2023-05-18T23:59:19.085Z,55.84
